CheckWX is a tool to help pilots better visualize weather data.  It is not intended as a substitute for an official pre-flight weather briefing.

15:25:25 UTC

4A6 METAR
Scottsboro Municipal-Word Field Airport
Scottsboro, Alabama, USA
Current

10 mins ago

K4A6 211515Z AUTO 22005KT 10SM SCT016 SCT026 BKN041 26/25 A3008 RMK AO2
Observed
Jul-21 @ 15:15 UTC
Wind
  • 220° at 5 KTS
Visibility
10 SM
Flight Rules
VFR
Cloud Levels
  • Scattered at 1,600' AGL
  • Scattered at 2,600' AGL
  • Broken at 4,100' AGL
Temperature
26°C / 79°F
Dewpoint
25°C / 77°F
Humidity
94%
Altimeter
30.08" Hg
Pressure
1018.62 hPa
Previous

30 mins ago

K4A6 211455Z AUTO VRB03KT 10SM FEW015 FEW020 BKN039 26/26 A3008 RMK AO2
Observed
Jul-21 @ 14:55 UTC
Wind
  • Variable at 3 KTS
Visibility
10 SM
Flight Rules
VFR
Cloud Levels
  • Few at 1,500' AGL
  • Few at 2,000' AGL
  • Broken at 3,900' AGL
Temperature
26°C / 79°F
Dewpoint
26°C / 79°F
Humidity
100%
Altimeter
30.08" Hg
Pressure
1018.62 hPa
Previous

50 mins ago

K4A6 211435Z AUTO 24004KT 10SM FEW015 SCT021 BKN035 26/25 A3008 RMK AO2
Observed
Jul-21 @ 14:35 UTC
Wind
  • 240° at 4 KTS
Visibility
10 SM
Flight Rules
VFR
Cloud Levels
  • Few at 1,500' AGL
  • Scattered at 2,100' AGL
  • Broken at 3,500' AGL
Temperature
26°C / 79°F
Dewpoint
25°C / 77°F
Humidity
94%
Altimeter
30.08" Hg
Pressure
1018.62 hPa